createdAt,value
2018-02-25T00:01:12.878Z,0.60
2018-02-25T00:03:46.825Z,0.90
2018-02-25T00:06:21.034Z,0.60
2018-02-25T00:08:55.702Z,0.70
2018-02-25T00:11:30.781Z,0.30
2018-02-25T00:14:04.582Z,0.20
2018-02-25T00:16:38.945Z,0.40
2018-02-25T00:19:12.887Z,0.40
2018-02-25T00:21:47.380Z,0.30
2018-02-25T00:24:21.663Z,0.30
2018-02-25T00:26:55.671Z,0.00
2018-02-25T00:29:30.369Z,0.20
2018-02-25T00:32:04.288Z,0.20
2018-02-25T00:34:38.116Z,0.20
2018-02-25T00:37:13.638Z,0.10
2018-02-25T00:39:47.293Z,0.10
2018-02-25T00:42:21.130Z,-0.10
2018-02-25T00:44:55.194Z,0.10
2018-02-25T00:47:29.970Z,0.10
2018-02-25T00:50:03.950Z,0.10
2018-02-25T00:52:38.238Z,0.20
2018-02-25T00:55:12.274Z,0.10
2018-02-25T00:57:46.462Z,0.40
2018-02-25T01:00:21.124Z,0.40
2018-02-25T01:02:54.746Z,0.20
2018-02-25T01:05:28.862Z,0.20
2018-02-25T01:08:02.873Z,0.20
2018-02-25T01:10:36.948Z,0.20
2018-02-25T01:13:10.701Z,0.40
2018-02-25T01:15:45.421Z,0.00
2018-02-25T01:18:19.522Z,-0.10
2018-02-25T01:20:53.578Z,0.10
2018-02-25T01:23:27.986Z,0.20
2018-02-25T01:26:01.681Z,0.00
2018-02-25T01:28:35.692Z,0.10
2018-02-25T01:31:10.272Z,0.10
2018-02-25T01:33:44.110Z,0.10
2018-02-25T01:36:18.925Z,0.00
2018-02-25T01:38:52.844Z,0.00
2018-02-25T01:41:27.546Z,0.30
2018-02-25T01:44:01.407Z,0.30
2018-02-25T01:46:35.221Z,0.10
2018-02-25T01:49:08.872Z,-0.30
2018-02-25T01:51:42.934Z,-0.30
2018-02-25T01:54:17.494Z,-0.40
2018-02-25T01:56:53.145Z,-0.10
2018-02-25T01:59:27.756Z,-0.10
2018-02-25T02:02:01.845Z,-0.10
2018-02-25T02:04:36.361Z,-0.10
2018-02-25T02:07:10.887Z,-0.10
2018-02-25T02:09:45.025Z,-0.10
2018-02-25T02:12:18.713Z,-0.30
2018-02-25T02:14:52.626Z,-0.10
2018-02-25T02:17:29.596Z,0.00
2018-02-25T02:20:04.181Z,-0.10
2018-02-25T02:22:38.630Z,0.00
2018-02-25T02:25:12.543Z,-0.10
2018-02-25T02:27:46.619Z,-0.40
2018-02-25T02:30:21.761Z,-0.40
2018-02-25T02:32:56.039Z,-0.40
2018-02-25T02:35:30.156Z,-0.40
2018-02-25T02:38:04.012Z,-0.40
2018-02-25T02:40:38.150Z,-0.30
2018-02-25T02:43:12.294Z,-0.30
2018-02-25T02:45:47.563Z,-0.10
2018-02-25T02:48:21.611Z,-0.10
2018-02-25T02:50:56.491Z,-0.40
2018-02-25T02:53:31.337Z,-0.20
2018-02-25T02:56:06.158Z,-0.10
2018-02-25T02:58:40.400Z,-0.10
2018-02-25T03:01:15.075Z,-0.20
2018-02-25T03:03:49.772Z,-0.10
2018-02-25T03:06:23.728Z,-0.50
2018-02-25T03:08:58.411Z,-0.40
2018-02-25T03:11:32.393Z,-0.60
2018-02-25T03:14:06.205Z,-0.50
2018-02-25T03:16:41.492Z,-0.80
2018-02-25T03:19:15.622Z,-0.80
2018-02-25T03:21:50.098Z,-0.70
2018-02-25T03:24:23.893Z,-0.40
2018-02-25T03:26:57.697Z,-0.30
2018-02-25T03:29:31.554Z,-0.40
2018-02-25T03:32:06.888Z,-0.40
2018-02-25T03:34:41.930Z,-0.50
2018-02-25T03:37:15.799Z,-0.50
2018-02-25T03:39:49.623Z,-0.60
2018-02-25T03:42:23.467Z,-0.80
2018-02-25T03:44:58.740Z,-0.70
2018-02-25T03:47:32.549Z,-0.90
2018-02-25T03:50:06.202Z,-0.90
2018-02-25T03:52:39.822Z,-1.00
2018-02-25T03:55:13.641Z,-0.90
2018-02-25T03:57:47.402Z,-0.70
2018-02-25T04:00:21.323Z,-0.70
2018-02-25T04:02:55.828Z,-0.70
2018-02-25T04:05:30.031Z,-0.70
2018-02-25T04:08:03.781Z,-0.70
2018-02-25T04:10:37.890Z,-0.90
2018-02-25T04:13:12.698Z,-0.80
2018-02-25T04:15:46.766Z,-0.80
2018-02-25T04:18:20.422Z,-0.70
2018-02-25T04:20:55.353Z,-0.60
2018-02-25T04:23:29.216Z,-0.60
2018-02-25T04:26:03.182Z,-0.60
2018-02-25T04:28:37.329Z,-0.80
2018-02-25T04:31:12.012Z,-0.90
2018-02-25T04:33:46.033Z,-0.90
2018-02-25T04:36:19.970Z,-1.00
2018-02-25T04:38:53.902Z,-0.90
2018-02-25T04:41:27.782Z,-0.80
2018-02-25T04:44:01.513Z,-0.90
2018-02-25T04:46:35.375Z,-0.80
2018-02-25T04:49:09.101Z,-0.90
2018-02-25T04:51:43.778Z,-1.10
2018-02-25T04:54:18.594Z,-1.10
2018-02-25T04:56:52.963Z,-1.10
2018-02-25T04:59:26.643Z,-1.20
2018-02-25T05:02:01.252Z,-1.20
2018-02-25T05:04:35.454Z,-1.20
2018-02-25T05:07:09.336Z,-1.20
2018-02-25T05:09:43.136Z,-1.10
2018-02-25T05:12:17.805Z,-0.90
2018-02-25T05:14:52.745Z,-1.00
2018-02-25T05:17:27.057Z,-1.00
2018-02-25T05:20:01.682Z,-1.30
2018-02-25T05:22:35.529Z,-1.30
2018-02-25T05:25:09.436Z,-1.50
2018-02-25T05:27:44.019Z,-1.60
2018-02-25T05:30:18.389Z,-1.60
2018-02-25T05:32:52.598Z,-1.60
2018-02-25T05:35:26.204Z,-1.60
2018-02-25T05:38:00.267Z,-1.80
2018-02-25T05:40:34.755Z,-1.90
2018-02-25T05:43:08.950Z,-1.90
2018-02-25T05:45:42.733Z,-1.90
2018-02-25T05:48:17.343Z,-1.70
2018-02-25T05:50:51.562Z,-1.70
2018-02-25T05:53:26.293Z,-1.90
2018-02-25T06:03:47.944Z,-1.60
2018-02-25T06:06:22.068Z,-1.60
2018-02-25T06:08:56.131Z,-1.70
2018-02-25T06:11:30.669Z,-1.70
2018-02-25T06:14:04.550Z,-1.90
2018-02-25T06:16:38.203Z,-1.80
2018-02-25T06:19:12.826Z,-1.70
2018-02-25T06:21:47.317Z,-1.80
2018-02-25T06:24:21.972Z,-1.80
2018-02-25T06:26:57.339Z,-1.80
2018-02-25T06:29:31.883Z,-1.90
2018-02-25T06:32:06.263Z,-1.80
2018-02-25T06:34:40.256Z,-1.70
2018-02-25T06:37:14.881Z,-1.60
2018-02-25T06:39:49.482Z,-1.60
2018-02-25T06:42:23.396Z,-1.50
2018-02-25T06:44:57.324Z,-1.50
2018-02-25T06:47:31.730Z,-1.60
2018-02-25T06:50:05.888Z,-1.70
2018-02-25T06:52:40.484Z,-1.60
2018-02-25T06:55:14.745Z,-1.70
2018-02-25T06:57:48.408Z,-1.50
2018-02-25T07:00:22.411Z,-1.40
2018-02-25T07:02:56.815Z,-1.40
2018-02-25T07:05:31.573Z,-1.20
2018-02-25T07:08:05.701Z,-1.20
2018-02-25T07:10:40.528Z,-1.30
2018-02-25T07:13:14.533Z,-1.30
2018-02-25T07:15:49.267Z,-1.10
2018-02-25T07:18:23.415Z,-1.10
2018-02-25T07:20:58.814Z,-0.90
2018-02-25T07:23:32.817Z,-1.00
2018-02-25T07:26:06.712Z,-1.00
2018-02-25T07:28:40.493Z,-1.10
2018-02-25T07:31:14.191Z,-1.20
2018-02-25T07:33:48.058Z,-1.10
2018-02-25T07:36:21.964Z,-0.90
2018-02-25T07:38:56.751Z,-0.90
2018-02-25T07:41:31.341Z,-0.90
2018-02-25T07:44:05.481Z,-1.00
2018-02-25T07:46:39.451Z,-0.90
2018-02-25T07:49:13.383Z,-1.00
2018-02-25T07:51:47.957Z,-0.70
2018-02-25T07:54:22.235Z,-0.70
2018-02-25T07:56:56.138Z,-0.80
2018-02-25T07:59:30.001Z,-0.80
2018-02-25T08:02:03.834Z,-0.90
2018-02-25T08:04:37.555Z,-0.70
2018-02-25T08:07:12.120Z,-0.70
2018-02-25T08:09:46.019Z,-0.70
2018-02-25T08:12:19.872Z,-0.70
2018-02-25T08:14:53.749Z,-0.50
2018-02-25T08:17:27.928Z,-0.30
2018-02-25T08:20:01.883Z,-0.10
2018-02-25T08:22:35.662Z,0.00
2018-02-25T08:25:11.061Z,-0.10
2018-02-25T08:27:45.459Z,-0.20
2018-02-25T08:30:19.292Z,-0.20
2018-02-25T08:32:53.019Z,0.00
2018-02-25T08:35:26.771Z,-0.20
2018-02-25T08:38:00.545Z,-0.30
2018-02-25T08:40:35.150Z,0.00
2018-02-25T08:43:09.548Z,0.00
2018-02-25T08:45:43.494Z,0.20
2018-02-25T08:48:18.002Z,0.40
2018-02-25T08:50:52.030Z,0.40
2018-02-25T08:53:25.978Z,0.60
2018-02-25T08:55:59.598Z,0.50
2018-02-25T08:58:33.263Z,0.40
2018-02-25T09:01:07.088Z,0.80
2018-02-25T09:03:40.897Z,0.70
2018-02-25T09:06:14.755Z,0.70
2018-02-25T09:08:49.382Z,0.60
2018-02-25T09:11:23.451Z,0.60
2018-02-25T09:13:58.171Z,0.60
2018-02-25T09:16:31.902Z,0.70
2018-02-25T09:19:05.971Z,0.80
2018-02-25T09:21:39.644Z,0.90
2018-02-25T09:24:14.271Z,0.90
2018-02-25T09:26:48.274Z,0.90
2018-02-25T09:29:22.796Z,1.10
2018-02-25T09:31:57.111Z,1.10
2018-02-25T09:34:31.676Z,1.70
2018-02-25T09:37:06.354Z,4.00
2018-02-25T09:39:41.282Z,3.90
2018-02-25T09:42:15.877Z,3.10
2018-02-25T09:44:49.917Z,3.10
2018-02-25T09:47:24.626Z,3.50
2018-02-25T09:49:59.921Z,1.80
2018-02-25T09:52:34.159Z,1.80
2018-02-25T09:55:08.850Z,1.40
2018-02-25T09:57:42.572Z,1.40
2018-02-25T10:00:16.468Z,1.40
2018-02-25T10:02:50.115Z,1.30
2018-02-25T10:05:24.680Z,1.80
2018-02-25T10:07:59.019Z,1.80
2018-02-25T10:10:33.548Z,1.80
2018-02-25T10:13:08.422Z,1.40
2018-02-25T10:15:42.642Z,1.40
2018-02-25T10:18:20.249Z,1.40
2018-02-25T10:20:54.432Z,1.70
2018-02-25T10:23:28.567Z,2.00
2018-02-25T10:26:03.625Z,2.10
2018-02-25T10:28:37.437Z,2.10
2018-02-25T10:31:11.318Z,1.90
2018-02-25T10:33:46.796Z,1.70
2018-02-25T10:36:21.205Z,1.70
2018-02-25T10:38:55.587Z,2.00
2018-02-25T10:41:29.654Z,2.00
2018-02-25T10:44:03.422Z,2.20
2018-02-25T10:46:38.078Z,2.00
2018-02-25T10:49:12.443Z,2.00
2018-02-25T10:51:47.314Z,1.70
2018-02-25T10:54:22.210Z,2.00
2018-02-25T10:56:56.233Z,2.20
2018-02-25T10:59:31.000Z,2.50
2018-02-25T11:02:06.211Z,2.80
2018-02-25T11:04:41.668Z,2.90
2018-02-25T11:07:15.756Z,2.90
2018-02-25T11:09:50.493Z,2.70
2018-02-25T11:12:25.090Z,2.70
2018-02-25T11:14:59.831Z,2.70
2018-02-25T11:17:34.764Z,2.70
2018-02-25T11:20:10.489Z,2.90
2018-02-25T11:22:44.985Z,2.90
2018-02-25T11:25:19.462Z,3.20
2018-02-25T11:27:53.382Z,3.20
2018-02-25T11:30:27.857Z,3.20
2018-02-25T11:33:01.890Z,3.20
2018-02-25T11:35:35.791Z,3.10
2018-02-25T11:38:09.602Z,2.70
2018-02-25T11:40:43.485Z,2.60
2018-02-25T11:43:17.239Z,2.60
2018-02-25T11:45:51.347Z,2.80
2018-02-25T11:48:26.685Z,3.20
2018-02-25T11:51:01.373Z,3.00
2018-02-25T11:53:35.618Z,3.00
2018-02-25T11:56:09.476Z,3.00
2018-02-25T11:58:44.590Z,2.70
2018-02-25T12:01:19.041Z,2.60
2018-02-25T12:03:53.549Z,2.60
2018-02-25T12:06:27.970Z,2.40
2018-02-25T12:09:02.295Z,2.30
2018-02-25T12:11:36.773Z,2.30
2018-02-25T12:14:11.125Z,2.40
2018-02-25T12:16:45.152Z,2.30
2018-02-25T12:19:19.267Z,2.30
2018-02-25T12:21:53.847Z,2.30
2018-02-25T12:24:27.905Z,2.50
2018-02-25T12:27:01.922Z,2.40
2018-02-25T12:29:36.534Z,2.60
2018-02-25T12:32:11.311Z,2.50
2018-02-25T12:34:45.375Z,2.50
2018-02-25T12:37:19.175Z,2.40
2018-02-25T12:39:53.022Z,2.30
2018-02-25T12:42:26.771Z,2.30
2018-02-25T12:45:00.658Z,2.10
2018-02-25T12:47:34.547Z,2.00
2018-02-25T12:50:08.417Z,1.90
2018-02-25T12:52:43.131Z,2.20
2018-02-25T12:55:18.018Z,2.00
2018-02-25T12:57:52.003Z,2.00
2018-02-25T13:00:26.531Z,2.10
2018-02-25T13:03:00.663Z,2.00
2018-02-25T13:05:34.582Z,2.00
2018-02-25T13:08:08.804Z,2.00
2018-02-25T13:10:43.304Z,2.00
2018-02-25T13:13:17.325Z,1.90
2018-02-25T13:15:51.403Z,1.90
2018-02-25T13:18:25.678Z,1.80
2018-02-25T13:21:00.056Z,1.70
2018-02-25T13:23:34.022Z,1.70
2018-02-25T13:26:07.775Z,1.60
2018-02-25T13:28:42.211Z,1.50
2018-02-25T13:31:16.515Z,1.80
2018-02-25T13:33:51.422Z,2.00
2018-02-25T13:36:26.792Z,2.00
2018-02-25T13:39:01.216Z,1.90
2018-02-25T13:41:35.515Z,2.00
2018-02-25T13:44:09.449Z,1.90
2018-02-25T13:46:44.149Z,1.90
2018-02-25T13:49:18.168Z,1.90
2018-02-25T13:51:52.115Z,1.90
2018-02-25T13:54:26.573Z,2.00
2018-02-25T13:57:00.741Z,2.00
2018-02-25T13:59:34.350Z,2.00
2018-02-25T14:02:08.314Z,2.00
2018-02-25T14:04:42.025Z,1.90
2018-02-25T14:07:16.682Z,2.00
2018-02-25T14:09:50.810Z,2.00
2018-02-25T14:12:24.585Z,2.10
2018-02-25T14:14:58.967Z,2.30
2018-02-25T14:17:33.821Z,2.50
2018-02-25T14:20:08.532Z,2.50
2018-02-25T14:22:43.651Z,2.60
2018-02-25T14:25:18.090Z,2.70
2018-02-25T14:27:53.025Z,2.80
2018-02-25T14:30:27.178Z,2.80
2018-02-25T14:33:01.353Z,2.70
2018-02-25T14:35:35.568Z,2.70
2018-02-25T14:38:09.835Z,2.70
2018-02-25T14:40:44.219Z,2.80
2018-02-25T14:43:18.519Z,2.80
2018-02-25T14:45:52.531Z,2.70
2018-02-25T14:48:26.284Z,2.80
2018-02-25T14:51:01.049Z,2.70
2018-02-25T14:53:35.575Z,2.70
2018-02-25T14:56:09.290Z,2.90
2018-02-25T14:58:43.346Z,3.10
2018-02-25T15:01:17.886Z,3.00
2018-02-25T15:03:52.136Z,3.00
2018-02-25T15:06:26.045Z,3.20
2018-02-25T15:08:59.832Z,3.20
2018-02-25T15:11:34.340Z,3.20
2018-02-25T15:14:08.445Z,3.20
2018-02-25T15:16:42.258Z,3.10
2018-02-25T15:19:16.042Z,3.30
2018-02-25T15:21:49.825Z,3.50
2018-02-25T15:24:23.955Z,3.70
2018-02-25T15:26:58.362Z,3.60
2018-02-25T15:29:32.300Z,3.60
2018-02-25T15:32:06.197Z,3.30
2018-02-25T15:34:41.184Z,2.70
2018-02-25T15:37:15.404Z,2.70
2018-02-25T15:39:50.232Z,2.40
2018-02-25T15:42:24.141Z,2.40
2018-02-25T15:44:58.801Z,2.20
2018-02-25T15:47:33.370Z,2.20
2018-02-25T15:50:07.397Z,2.30
2018-02-25T15:52:42.507Z,2.00
2018-02-25T15:55:17.979Z,2.00
2018-02-25T15:57:52.461Z,2.00
2018-02-25T16:00:27.123Z,2.20
2018-02-25T16:03:01.497Z,2.10
2018-02-25T16:05:36.741Z,2.10
2018-02-25T16:08:10.669Z,2.10
2018-02-25T16:10:44.466Z,2.20
2018-02-25T16:13:18.108Z,2.10
2018-02-25T16:15:52.142Z,1.90
2018-02-25T16:18:25.987Z,2.00
2018-02-25T16:20:59.771Z,1.80
2018-02-25T16:23:33.438Z,1.80
2018-02-25T16:26:08.169Z,1.80
2018-02-25T16:28:41.801Z,1.80
2018-02-25T16:31:15.609Z,1.90
2018-02-25T16:33:50.218Z,1.80
2018-02-25T16:36:24.941Z,1.80
2018-02-25T16:38:59.514Z,1.60
2018-02-25T16:41:33.427Z,1.60
2018-02-25T16:44:08.458Z,1.60
2018-02-25T16:46:42.186Z,1.60
2018-02-25T16:49:16.896Z,1.70
2018-02-25T16:51:51.946Z,1.70
2018-02-25T16:54:25.865Z,1.70
2018-02-25T16:57:00.690Z,1.60
2018-02-25T16:59:34.925Z,1.60
2018-02-25T17:02:08.645Z,1.60
2018-02-25T17:04:42.640Z,1.50
2018-02-25T17:07:16.767Z,1.40
2018-02-25T17:09:51.337Z,1.50
2018-02-25T17:12:25.461Z,1.40
2018-02-25T17:14:59.399Z,1.60
2018-02-25T17:17:33.410Z,1.50
2018-02-25T17:20:07.966Z,1.50
2018-02-25T17:22:42.071Z,1.40
2018-02-25T17:25:15.674Z,1.40
2018-02-25T17:27:49.429Z,1.30
2018-02-25T17:30:23.188Z,1.40
2018-02-25T17:32:57.064Z,1.30
2018-02-25T17:35:30.952Z,1.30
2018-02-25T17:38:04.944Z,1.30
2018-02-25T17:40:39.432Z,1.20
2018-02-25T17:43:13.578Z,1.20
2018-02-25T17:45:47.349Z,1.30
2018-02-25T17:48:21.066Z,1.10
2018-02-25T17:50:54.798Z,1.20
2018-02-25T17:53:28.794Z,1.40
2018-02-25T17:56:02.508Z,1.20
2018-02-25T17:58:36.303Z,1.30
2018-02-25T18:01:09.966Z,1.30
2018-02-25T18:03:44.226Z,1.20
2018-02-25T18:06:18.052Z,1.20
2018-02-25T18:08:52.091Z,1.20
2018-02-25T18:11:25.954Z,1.20
2018-02-25T18:14:00.583Z,1.20
2018-02-25T18:16:34.899Z,1.20
2018-02-25T18:19:10.333Z,1.20
2018-02-25T18:21:44.261Z,1.20
2018-02-25T18:24:18.843Z,1.30
2018-02-25T18:26:52.934Z,1.30
2018-02-25T18:29:26.793Z,1.30
2018-02-25T18:32:00.805Z,1.30
2018-02-25T18:34:35.424Z,1.40
2018-02-25T18:37:09.445Z,1.40
2018-02-25T18:39:43.232Z,1.40
2018-02-25T18:42:17.224Z,1.40
2018-02-25T18:44:50.962Z,1.30
2018-02-25T18:47:24.820Z,1.40
2018-02-25T18:49:58.719Z,1.50
2018-02-25T18:52:33.361Z,1.10
2018-02-25T18:55:08.021Z,1.30
2018-02-25T18:57:42.454Z,1.20
2018-02-25T19:00:16.346Z,1.40
2018-02-25T19:02:51.072Z,1.40
2018-02-25T19:05:25.325Z,1.20
2018-02-25T19:07:59.252Z,1.20
2018-02-25T19:10:33.070Z,1.30
2018-02-25T19:13:06.885Z,1.20
2018-02-25T19:15:40.781Z,1.10
2018-02-25T19:18:14.621Z,1.20
2018-02-25T19:20:48.774Z,1.00
2018-02-25T19:23:22.445Z,0.90
2018-02-25T19:25:57.015Z,1.10
2018-02-25T19:28:31.635Z,1.10
2018-02-25T19:31:06.626Z,0.80
2018-02-25T19:33:41.731Z,0.80
2018-02-25T19:36:22.647Z,0.80
2018-02-25T19:39:02.189Z,0.80
2018-02-25T19:41:42.532Z,0.80
2018-02-25T19:44:16.849Z,0.90
2018-02-25T19:46:51.667Z,0.90
2018-02-25T19:49:26.275Z,0.90
2018-02-25T19:52:00.246Z,0.70
2018-02-25T19:54:34.728Z,0.70
2018-02-25T19:57:08.876Z,0.70
2018-02-25T19:59:43.566Z,0.50
2018-02-25T20:02:17.713Z,0.50
2018-02-25T20:04:51.583Z,0.50
2018-02-25T20:07:27.162Z,0.30
2018-02-25T20:10:01.330Z,0.30
2018-02-25T20:12:35.838Z,0.60
2018-02-25T20:15:09.998Z,0.60
2018-02-25T20:17:43.846Z,0.50
2018-02-25T20:20:19.300Z,0.40
2018-02-25T20:22:53.862Z,0.40
2018-02-25T20:25:27.933Z,0.30
2018-02-25T20:28:01.610Z,0.40
2018-02-25T20:30:35.619Z,0.30
2018-02-25T20:33:09.383Z,0.20
2018-02-25T20:35:43.189Z,0.20
2018-02-25T20:38:17.086Z,0.00
2018-02-25T20:40:50.903Z,0.30
2018-02-25T20:43:25.645Z,0.30
2018-02-25T20:45:59.373Z,0.30
2018-02-25T20:48:33.390Z,0.20
2018-02-25T20:51:08.259Z,0.20
2018-02-25T20:53:44.035Z,-0.10
2018-02-25T20:56:18.675Z,-0.10
2018-02-25T20:58:53.175Z,0.00
2018-02-25T21:01:27.366Z,-0.10
2018-02-25T21:04:01.170Z,-0.20
2018-02-25T21:06:35.329Z,-0.10
2018-02-25T21:09:09.442Z,-0.10
2018-02-25T21:11:44.131Z,-0.20
2018-02-25T21:14:17.943Z,-0.30
2018-02-25T21:16:51.659Z,-0.10
2018-02-25T21:19:25.510Z,0.00
2018-02-25T21:22:00.063Z,0.00
2018-02-25T21:24:34.705Z,0.10
2018-02-25T21:27:08.947Z,0.00
2018-02-25T21:29:43.473Z,-0.20
2018-02-25T21:32:18.390Z,-0.20
2018-02-25T21:34:52.621Z,-0.20
2018-02-25T21:37:26.504Z,-0.30
2018-02-25T21:40:01.158Z,-0.30
2018-02-25T21:42:36.786Z,-0.30
2018-02-25T21:45:11.495Z,-0.30
2018-02-25T21:47:45.283Z,-0.30
2018-02-25T21:50:19.117Z,-0.50
2018-02-25T21:52:52.830Z,-0.40
2018-02-25T21:55:26.799Z,-0.50
2018-02-25T21:58:07.087Z,-0.70
2018-02-25T22:00:47.189Z,-0.70
2018-02-25T22:03:27.371Z,-0.70
2018-02-25T22:06:01.397Z,-0.80
2018-02-25T22:08:35.197Z,-0.90
2018-02-25T22:11:10.701Z,-0.90
2018-02-25T22:13:44.575Z,-0.90
2018-02-25T22:16:18.643Z,-0.80
2018-02-25T22:18:54.191Z,-0.50
2018-02-25T22:21:28.242Z,-0.60
2018-02-25T22:24:02.169Z,-0.50
2018-02-25T22:26:36.052Z,-0.50
2018-02-25T22:29:10.642Z,-0.50
2018-02-25T22:31:44.349Z,-0.90
2018-02-25T22:34:18.353Z,-1.00
2018-02-25T22:36:53.222Z,-0.70
2018-02-25T22:39:27.438Z,-0.80
2018-02-25T22:42:01.495Z,-1.00
2018-02-25T22:44:36.890Z,-1.00
2018-02-25T22:47:10.935Z,-1.00
2018-02-25T22:49:45.401Z,-0.90
2018-02-25T22:52:19.195Z,-1.00
2018-02-25T22:54:53.295Z,-1.00
2018-02-25T22:57:28.802Z,-1.00
2018-02-25T23:00:02.967Z,-1.00
2018-02-25T23:02:36.731Z,-1.00
2018-02-25T23:05:11.485Z,-1.20
2018-02-25T23:07:45.929Z,-1.20
2018-02-25T23:10:20.059Z,-1.30
2018-02-25T23:12:55.311Z,-1.10
2018-02-25T23:15:29.917Z,-1.20
2018-02-25T23:18:03.782Z,-1.20
2018-02-25T23:20:37.647Z,-1.10
2018-02-25T23:23:11.780Z,-1.00
2018-02-25T23:25:45.405Z,-1.00
2018-02-25T23:28:19.252Z,-1.10
2018-02-25T23:30:53.153Z,-1.10
2018-02-25T23:33:27.018Z,-0.90
2018-02-25T23:36:00.697Z,-0.90
2018-02-25T23:38:34.555Z,-1.00
2018-02-25T23:41:09.074Z,-1.10
2018-02-25T23:43:43.110Z,-1.20
2018-02-25T23:46:16.855Z,-1.20
2018-02-25T23:48:51.544Z,-1.40
2018-02-25T23:51:25.626Z,-1.40
2018-02-25T23:53:59.721Z,-1.20
2018-02-25T23:56:34.543Z,-1.50
2018-02-25T23:59:08.343Z,-1.50
